McNeill, MS (39457)

12:23 AM CST on January 29, 2015 (GMT -0600)
Rock Ranch Road | Change Station
CLOSE
Current Station
Personal Weather Station
Location: Carriere, MS
Elevation: 131 ft
Nearby Weather Stations

Elev 131 ft 30.64 °N, 89.70 °W | Updated 9 seconds ago

Partly Cloudy
Partly Cloudy
43.2 °F
Feels Like 43 °F
N
0.0
Wind Variable Wind from NW
Gusts 0.0 mph

Today
High -- | Low -- °F
--% Chance of Precip.
Yesterday
High -- | Low -- °F
Precip. -- in
6:51 AM 5:31 PM
Waxing Gibbous, 71% visible
Pressure 30.22 in
Visibility 10.0 miles
Clouds Clear
Windchill 43 °F
Dew Point 39 °F
Humidity 86%
Rainfall 0.00 in
Snow Depth Not available.
UV 0 out of 12
Pollen 7.10 out of 12
Air Quality Not available.
Flu Activity Not available.
METAR KASD 290553Z AUTO 00000KT 10SM CLR 06/04 A3022 RMK AO2 SLP234 T00610039 10111 20061 402000028 53001

More Conditions Fewer Conditions

Pressure 30.22 in
Visibility 10.0 miles
Clouds Clear
Windchill 43 °F
Dew Point 39 °F
Humidity 86%
Rainfall 0.00 in
Snow Depth Not available.
UV 0 out of 12
Pollen 7.10 out of 12
Air Quality Not available.
Flu Activity Not available.
METAR KASD 290553Z AUTO 00000KT 10SM CLR 06/04 A3022 RMK AO2 SLP234 T00610039 10111 20061 402000028 53001

More Conditions Fewer Conditions

10-Day Weather Forecast

Almanac

Astronomy

Jan. 29, 2015 Rise Set
Actual Time
Civil Twilight
Nautical Twilight
Astronomical Twilight
Moon
Length of Visible Light
Length of Day
Tomorrow will be .
, % of the Moon is Illuminated

Today's Extremes

State Highs State Lows

Community

WunderPhotos

Upload Photos

1,791,369 photos uploaded!

WunderBlogs® & News

Nearby

Air Quality

  Air Quality AQ Index Pollutant
Not available.

Snow Depth

Station Depth Elevation

Earthquake Activity

City Distance Mag. Time & Date
Minimum magnitude displayed is 2.5.

Coastal Water Temperatures

Place Temperature

Nearby Weather Stations